Airfield :
LOGIN :

Register | Disclaimer

   EN    FR    IT 

 










Legend :    VFR   Marginal VFR   IFR   Intensive IFR   Very Intensive IFR
Visi :
Ceiling :
>= 8 km
>= 3000ft
5 to 8 km
1000 to 3000 ft
1500m to 5 km
500 to 1000 ft
800 to 1500m
200 to 500 ft
< 800m
< 200 ft
Symbols :   Thunderstorms  Fog  Heavy snow  Heavy precipitations  Wind > 20 kt
SIGMETs :     Misc.  Thunderstorms  Icing  Turbulence  Mountain Waves  Volcanic Ashes






- Airport Elevation : 1475 ft


LSZC - Buochs Stans

CURRENT METAR :
  • 100350Z AUTO 07008KT 050V120 CAVOK 16/06 Q1007

EXPIRED METARs :
  • 100320Z AUTO 06005KT 020V160 9999 NCD 16/06 Q1007
  • 100250Z AUTO 06006KT 020V100 CAVOK 18/06 Q1007
  • 100220Z AUTO 03008KT 360V070 9999 NSC 19/06 Q1007
  • 100150Z AUTO 04012KT CAVOK 19/05 Q1006
  • 100120Z AUTO 04013KT 9999 NCD 18/06 Q1007

Expired Forecast.



MET'MAP, your aeronautical weather chart ! - Copyright ORBIFLY December 2007 - Disclaimer

ORBIFLY MET'MAP TEAM :

Programming & Development : Alexandra Zaïnal
Concept & original design : Baudouin d'Aumeries
Assistance for programming : Marc-Olivier Méhu
Technical & hardware support : Manuel Goepfert

Contact : metmap@orbifly.com




SOURCES & CREDITS :

   NOAA